21:24
Airports
History
Links
Donate
Help keep this website running!
PayPal
Bitcoin
This page is community maintained. The information is intended for PC simulator navigation or reference.
Always use approved charts for navigation.
ZHHH
TIANHE
TIANHE (ZHHH)
Wuhan Shi, Hubei, China
(C)
Lat/Lng:30° 47' 1.53" N / 114° 12' 29.16" E
30.783759 / 114.208099
Elevation:113'ft / 34mMSL
ID / ICAO:ZHHH
Runways:1
Longest:04-22
Concrete 3,396m / 11,141ft
Controlled:Yes
METAR21:00 GMT 2018-02-20
Altimeter: 30.24
Visibility: 2.5 statute miles
Wind: 3.9 knots (from 040°)
Temp: 6°c / 43°f
Humidity: 87.0%

METAR: ZHHH 202100Z 04002MPS 010V070 4000 BR OVC030 06/04 Q1024 NOSIG

(Powered by phpweather)
Airport Radio Frequencies
ATIS: 126.6
Ground: 121.65
Tower: 122.7, 130
Nearby VORs <50NM
Nearby NDBs
Runway 04 / 22
Dimensions:3395.7 x 45.1m 11141' x 148'ft
Surface:Concrete
Edge Lights:High intensity
Runway 04 [A]Runway 22 [B]
Heading:041°TH 221°TH
Lat:
Lng:
30° 46' 20.21"N
114° 11' 46.73"E
30° 47' 42.85"N
114° 13' 11.58"E
ALS:ALSF-IIALSF-I
TDZ:Yes
User Notes and Comments
30° 47' 1.53" N / 114° 12' 29.16" E
Distance To
Airport ID:
Nearby Airports
(C) CHANGBEI INTL 166.9 NM
ZSCN ( WX ) SE 142°
(C) HUANGHUA 188.9 NM
ZGHA SSW 198°
(C) LUOGANG 195.0 NM
ZSOF ( WX ) ENE 69°
(C) Zhengzhou Xinzheng 259.0 NM
ZHCC ( WX ) N 355°
(C) LUKOU 282.7 NM
ZSNJ ( WX ) ENE 76°
(C) Ankang 337.3 NM
ZLAK WNW 293°
(C) XIAOSHAN 372.6 NM
ZSHC ( WX ) E 95°
VFR Chart
Flight Planning at SkyVector.com